createdAt,value
2023-03-12T00:02:18.053Z,0.40
2023-03-12T00:04:45.289Z,0.10
2023-03-12T00:07:12.670Z,0.00
2023-03-12T00:09:40.347Z,0.00
2023-03-12T00:12:08.245Z,0.00
2023-03-12T00:14:36.522Z,0.00
2023-03-12T00:17:03.886Z,-0.10
2023-03-12T00:19:31.205Z,-0.20
2023-03-12T00:21:58.499Z,0.10
2023-03-12T00:24:25.708Z,-0.40
2023-03-12T00:26:53.006Z,-0.40
2023-03-12T00:29:20.220Z,-0.40
2023-03-12T00:31:47.944Z,-0.50
2023-03-12T00:34:15.265Z,-0.40
2023-03-12T00:36:42.495Z,-0.40
2023-03-12T00:39:10.825Z,-0.30
2023-03-12T00:41:38.091Z,-0.30
2023-03-12T00:44:05.361Z,-0.30
2023-03-12T00:46:32.602Z,-0.20
2023-03-12T00:49:00.011Z,-0.30
2023-03-12T00:51:27.355Z,-0.20
2023-03-12T00:53:56.388Z,-0.30
2023-03-12T00:56:25.157Z,-0.30
2023-03-12T00:58:52.580Z,-0.30
2023-03-12T01:01:20.190Z,-0.40
2023-03-12T01:03:47.876Z,-0.50
2023-03-12T01:06:15.129Z,-0.60
2023-03-12T01:08:43.002Z,-0.70
2023-03-12T01:11:14.983Z,-0.90
2023-03-12T01:13:42.238Z,-0.80
2023-03-12T01:16:10.081Z,-0.90
2023-03-12T01:18:37.373Z,-0.90
2023-03-12T01:21:05.724Z,-0.90
2023-03-12T01:23:33.174Z,-0.80
2023-03-12T01:26:00.457Z,-0.90
2023-03-12T01:28:28.061Z,-1.00
2023-03-12T01:30:55.416Z,-0.90
2023-03-12T01:33:23.181Z,-0.80
2023-03-12T01:35:50.707Z,-0.80
2023-03-12T01:38:19.302Z,-0.80
2023-03-12T01:40:46.806Z,-0.70
2023-03-12T01:43:28.396Z,-0.70
2023-03-12T01:46:26.378Z,-0.70
2023-03-12T01:49:09.276Z,-0.70
2023-03-12T01:52:11.225Z,-0.80
2023-03-12T01:55:11.232Z,-1.00
2023-03-12T01:57:47.888Z,-1.10
2023-03-12T02:00:22.419Z,-1.20
2023-03-12T02:02:54.442Z,-1.30
2023-03-12T02:05:58.817Z,-1.40
2023-03-12T02:08:26.568Z,-1.50
2023-03-12T02:10:53.942Z,-1.70
2023-03-12T02:13:21.380Z,-1.60
2023-03-12T02:15:48.799Z,-1.50
2023-03-12T02:18:19.269Z,-1.60
2023-03-12T02:21:18.391Z,-1.50
2023-03-12T02:24:02.171Z,-1.40
2023-03-12T02:26:32.386Z,-1.30
2023-03-12T02:29:01.670Z,-1.20
2023-03-12T02:31:38.660Z,-1.20
2023-03-12T02:34:07.544Z,-1.30
2023-03-12T02:36:37.113Z,-1.60
2023-03-12T02:39:06.139Z,-1.70
2023-03-12T02:41:41.788Z,-1.70
2023-03-12T02:44:18.195Z,-1.90
2023-03-12T02:46:51.703Z,-2.00
2023-03-12T02:49:20.912Z,-2.10
2023-03-12T02:51:49.449Z,-2.20
2023-03-12T02:54:19.698Z,-2.20
2023-03-12T02:56:48.721Z,-2.10
2023-03-12T02:59:16.651Z,-2.10
2023-03-12T03:01:45.479Z,-2.20
2023-03-12T03:04:13.925Z,-2.30
2023-03-12T03:06:44.320Z,-2.20
2023-03-12T03:09:12.361Z,-2.30
2023-03-12T03:11:39.759Z,-2.20
2023-03-12T03:14:08.799Z,-2.30
2023-03-12T03:16:36.644Z,-2.30
2023-03-12T03:19:05.040Z,-2.30
2023-03-12T03:21:32.966Z,-2.30
2023-03-12T03:24:00.372Z,-2.50
2023-03-12T03:26:27.644Z,-2.50
2023-03-12T03:28:55.503Z,-2.50
2023-03-12T03:31:22.857Z,-2.50
2023-03-12T03:33:51.588Z,-2.60
2023-03-12T03:36:19.413Z,-2.70
2023-03-12T03:38:55.150Z,-2.90
2023-03-12T03:41:23.410Z,-3.00
2023-03-12T03:43:50.995Z,-3.00
2023-03-12T03:46:20.924Z,-3.00
2023-03-12T03:48:55.794Z,-3.00
2023-03-12T03:51:23.760Z,-3.10
2023-03-12T03:53:55.930Z,-3.20
2023-03-12T03:56:23.480Z,-3.10
2023-03-12T03:58:51.195Z,-3.20
2023-03-12T04:01:21.355Z,-3.10
2023-03-12T04:03:50.226Z,-3.00
2023-03-12T04:06:18.029Z,-3.00
2023-03-12T04:08:45.284Z,-3.00
2023-03-12T04:11:21.298Z,-3.00
2023-03-12T04:13:49.296Z,-3.00
2023-03-12T04:16:19.241Z,-3.00
2023-03-12T04:18:48.180Z,-3.00
2023-03-12T04:21:16.958Z,-3.00
2023-03-12T04:23:45.188Z,-2.90
2023-03-12T04:26:14.139Z,-2.70
2023-03-12T04:28:41.491Z,-2.60
2023-03-12T04:31:12.765Z,-2.40
2023-03-12T04:33:44.729Z,-2.30
2023-03-12T04:36:13.312Z,-2.10
2023-03-12T04:38:42.753Z,-2.60
2023-03-12T04:41:14.120Z,-2.90
2023-03-12T04:44:01.701Z,-3.20
2023-03-12T04:46:30.142Z,-3.40
2023-03-12T04:48:58.476Z,-3.40
2023-03-12T04:51:25.767Z,-3.30
2023-03-12T04:53:53.048Z,-3.30
2023-03-12T04:56:20.438Z,-3.40
2023-03-12T04:58:48.085Z,-3.40
2023-03-12T05:01:36.664Z,-3.30
2023-03-12T05:04:09.519Z,-3.20
2023-03-12T05:06:37.539Z,-3.20
2023-03-12T05:09:05.202Z,-3.10
2023-03-12T05:11:32.836Z,-3.00
2023-03-12T05:14:00.095Z,-3.00
2023-03-12T05:16:28.642Z,-3.10
2023-03-12T05:18:56.430Z,-3.20
2023-03-12T05:21:25.723Z,-3.20
2023-03-12T05:23:55.404Z,-3.30
2023-03-12T05:26:31.921Z,-3.40
2023-03-12T05:29:06.775Z,-3.40
2023-03-12T05:31:35.586Z,-3.30
2023-03-12T05:34:05.859Z,-3.30
2023-03-12T05:36:36.930Z,-3.30
2023-03-12T05:39:05.397Z,-3.30
2023-03-12T05:41:34.443Z,-3.30
2023-03-12T05:44:11.317Z,-3.20
2023-03-12T05:46:38.805Z,-3.20
2023-03-12T05:49:06.175Z,-3.20
2023-03-12T05:51:34.835Z,-3.10
2023-03-12T05:54:03.168Z,-3.00
2023-03-12T05:56:30.533Z,-2.80
2023-03-12T05:58:57.797Z,-2.80
2023-03-12T06:01:28.732Z,-2.70
2023-03-12T06:03:58.454Z,-2.70
2023-03-12T06:06:26.758Z,-2.30
2023-03-12T06:08:54.752Z,-2.10
2023-03-12T06:11:22.045Z,-2.00
2023-03-12T06:13:49.388Z,-2.00
2023-03-12T06:16:21.514Z,-1.90
2023-03-12T06:18:53.906Z,-1.80
2023-03-12T06:21:25.487Z,-1.70
2023-03-12T06:23:54.331Z,-1.60
2023-03-12T06:26:27.573Z,-1.50
2023-03-12T06:28:54.971Z,-1.50
2023-03-12T06:31:23.171Z,-1.40
2023-03-12T06:33:51.062Z,-1.40
2023-03-12T06:36:18.425Z,-1.40
2023-03-12T06:38:45.935Z,-1.30
2023-03-12T06:41:16.225Z,-1.30
2023-03-12T06:43:44.777Z,-1.30
2023-03-12T06:46:15.592Z,-1.10
2023-03-12T06:48:43.072Z,-1.00
2023-03-12T06:51:12.358Z,-0.80
2023-03-12T06:53:42.184Z,-0.60
2023-03-12T06:56:10.946Z,-0.50
2023-03-12T06:58:38.537Z,-0.20
2023-03-12T07:01:06.765Z,-0.10
2023-03-12T07:03:34.050Z,0.20
2023-03-12T07:06:01.385Z,0.50
2023-03-12T07:08:32.816Z,0.70
2023-03-12T07:11:04.027Z,0.70
2023-03-12T07:13:31.682Z,0.80
2023-03-12T07:15:58.963Z,0.80
2023-03-12T07:18:26.247Z,0.90
2023-03-12T07:20:54.426Z,1.10
2023-03-12T07:23:22.326Z,1.40
2023-03-12T07:25:49.960Z,1.70
2023-03-12T07:28:18.380Z,1.80
2023-03-12T07:30:50.570Z,2.00
2023-03-12T07:33:20.417Z,2.10
2023-03-12T07:35:51.445Z,2.20
2023-03-12T07:38:20.248Z,2.40
2023-03-12T07:40:52.918Z,2.60
2023-03-12T07:43:21.867Z,2.60
2023-03-12T07:45:51.846Z,2.80
2023-03-12T07:48:20.441Z,2.80
2023-03-12T07:50:48.707Z,3.10
2023-03-12T07:53:17.209Z,3.10
2023-03-12T07:55:46.564Z,3.30
2023-03-12T07:58:15.752Z,3.30
2023-03-12T08:00:43.078Z,3.50
2023-03-12T08:03:10.666Z,3.40
2023-03-12T08:05:38.371Z,3.40
2023-03-12T08:08:06.219Z,3.60
2023-03-12T08:10:33.418Z,3.70
2023-03-12T08:13:00.777Z,3.70
2023-03-12T08:15:28.065Z,3.80
2023-03-12T08:17:55.210Z,3.70
2023-03-12T08:20:22.404Z,4.00
2023-03-12T08:22:49.615Z,4.00
2023-03-12T08:25:18.726Z,3.90
2023-03-12T08:27:45.853Z,4.00
2023-03-12T08:30:13.384Z,4.20
2023-03-12T08:32:41.010Z,4.10
2023-03-12T08:35:10.297Z,4.00
2023-03-12T08:37:37.681Z,4.10
2023-03-12T08:40:14.600Z,4.00
2023-03-12T08:42:43.906Z,4.30
2023-03-12T08:45:12.652Z,4.40
2023-03-12T08:47:42.019Z,4.70
2023-03-12T08:50:11.815Z,4.80
2023-03-12T08:52:39.519Z,4.50
2023-03-12T08:55:35.466Z,4.70
2023-03-12T08:58:02.732Z,4.90
2023-03-12T09:00:29.993Z,5.00
2023-03-12T09:02:58.599Z,5.10
2023-03-12T09:05:28.511Z,5.00
2023-03-12T09:07:56.521Z,4.90
2023-03-12T09:10:25.528Z,5.00
2023-03-12T09:12:52.815Z,5.30
2023-03-12T09:15:20.121Z,5.20
2023-03-12T09:17:48.343Z,5.00
2023-03-12T09:20:15.536Z,4.90
2023-03-12T09:22:44.396Z,4.90
2023-03-12T09:25:12.443Z,4.90
2023-03-12T09:27:47.868Z,5.20
2023-03-12T09:30:18.190Z,5.40
2023-03-12T09:32:46.903Z,5.60
2023-03-12T09:35:15.910Z,5.50
2023-03-12T09:37:43.625Z,5.50
2023-03-12T09:40:19.800Z,5.70
2023-03-12T09:43:33.770Z,5.80
2023-03-12T09:46:02.095Z,6.00
2023-03-12T09:48:37.559Z,6.00
2023-03-12T09:51:45.847Z,5.90
2023-03-12T09:54:47.503Z,5.80
2023-03-12T09:57:22.533Z,5.70
2023-03-12T09:59:51.238Z,5.60
2023-03-12T10:02:45.047Z,5.60
2023-03-12T10:05:24.531Z,5.70
2023-03-12T10:08:13.706Z,5.90
2023-03-12T10:11:21.541Z,6.30
2023-03-12T10:14:24.145Z,6.30
2023-03-12T10:16:51.752Z,6.80
2023-03-12T10:19:37.832Z,6.90
2023-03-12T10:22:33.061Z,6.30
2023-03-12T10:25:35.735Z,6.40
2023-03-12T10:28:30.832Z,7.20
2023-03-12T10:31:04.214Z,7.30
2023-03-12T10:33:43.733Z,7.20
2023-03-12T10:36:19.208Z,7.10
2023-03-12T10:38:48.869Z,7.00
2023-03-12T10:41:25.902Z,7.10
2023-03-12T10:43:54.522Z,7.50
2023-03-12T10:46:41.633Z,7.80
2023-03-12T10:49:29.399Z,7.60
2023-03-12T10:52:30.600Z,7.50
2023-03-12T10:54:59.247Z,8.00
2023-03-12T10:57:40.194Z,7.40
2023-03-12T11:00:12.707Z,7.80
2023-03-12T11:02:46.322Z,8.10
2023-03-12T11:05:23.937Z,8.10
2023-03-12T11:07:52.376Z,8.10
2023-03-12T11:10:37.571Z,8.20
2023-03-12T11:13:21.219Z,8.60
2023-03-12T11:15:48.908Z,9.00
2023-03-12T11:18:27.369Z,8.80
2023-03-12T11:21:09.967Z,8.80
2023-03-12T11:23:39.806Z,9.20
2023-03-12T11:26:20.572Z,9.40
2023-03-12T11:28:51.116Z,12.50
2023-03-12T11:31:50.036Z,15.20
2023-03-12T11:34:29.176Z,16.60
2023-03-12T11:37:13.404Z,15.70
2023-03-12T11:39:59.452Z,16.20
2023-03-12T11:43:03.814Z,16.00
2023-03-12T11:46:25.094Z,16.60
2023-03-12T11:49:21.856Z,16.60
2023-03-12T11:52:10.849Z,18.00
2023-03-12T11:54:55.329Z,16.60
2023-03-12T11:57:53.760Z,13.30
2023-03-12T12:00:37.345Z,15.00
2023-03-12T12:03:23.338Z,15.30
2023-03-12T12:06:00.573Z,15.40
2023-03-12T12:09:01.162Z,16.50
2023-03-12T12:12:20.344Z,16.50
2023-03-12T12:15:06.165Z,14.90
2023-03-12T12:17:46.552Z,14.50
2023-03-12T12:20:44.343Z,15.70
2023-03-12T12:23:30.458Z,14.50
2023-03-12T12:26:08.720Z,12.10
2023-03-12T12:29:03.943Z,12.20
2023-03-12T12:31:51.835Z,12.90
2023-03-12T12:34:31.408Z,15.00
2023-03-12T12:37:24.395Z,16.90
2023-03-12T12:40:08.948Z,18.70
2023-03-12T12:42:50.021Z,20.40
2023-03-12T12:45:19.332Z,19.50
2023-03-12T12:48:11.871Z,20.00
2023-03-12T12:50:40.166Z,19.80
2023-03-12T12:53:45.952Z,21.40
2023-03-12T12:56:26.815Z,20.20
2023-03-12T12:59:23.837Z,12.80
2023-03-12T13:01:54.974Z,11.10
2023-03-12T13:04:30.933Z,10.80
2023-03-12T13:07:04.506Z,11.20
2023-03-12T13:09:38.586Z,10.80
2023-03-12T13:12:13.940Z,10.40
2023-03-12T13:14:44.399Z,10.00
2023-03-12T13:17:27.516Z,9.90
2023-03-12T13:20:11.185Z,9.60
2023-03-12T13:22:38.740Z,9.90
2023-03-12T13:25:30.947Z,9.90
2023-03-12T13:28:22.371Z,10.10
2023-03-12T13:30:52.015Z,10.00
2023-03-12T13:33:36.543Z,10.30
2023-03-12T13:36:23.975Z,10.70
2023-03-12T13:38:58.768Z,10.60
2023-03-12T13:41:38.945Z,11.30
2023-03-12T13:44:27.091Z,11.20
2023-03-12T13:46:59.283Z,10.60
2023-03-12T13:49:29.056Z,10.10
2023-03-12T13:52:31.287Z,10.10
2023-03-12T13:55:16.386Z,10.50
2023-03-12T13:57:48.297Z,10.20
2023-03-12T14:00:25.622Z,9.70
2023-03-12T14:02:59.353Z,9.60
2023-03-12T14:05:28.554Z,9.60
2023-03-12T14:08:11.124Z,9.50
2023-03-12T14:11:19.071Z,9.50
2023-03-12T14:14:13.928Z,9.40
2023-03-12T14:16:54.464Z,9.30
2023-03-12T14:19:30.605Z,9.20
2023-03-12T14:22:03.244Z,9.10
2023-03-12T14:24:33.286Z,9.10
2023-03-12T14:27:02.638Z,9.10
2023-03-12T14:29:36.952Z,9.00
2023-03-12T14:32:17.395Z,8.90
2023-03-12T14:34:50.028Z,8.90
2023-03-12T14:37:25.231Z,8.80
2023-03-12T14:39:57.670Z,8.80
2023-03-12T14:42:30.321Z,8.80
2023-03-12T14:45:10.821Z,8.90
2023-03-12T14:47:42.787Z,8.80
2023-03-12T14:50:23.375Z,8.80
2023-03-12T14:52:51.323Z,8.70
2023-03-12T14:55:25.288Z,8.80
2023-03-12T14:58:07.522Z,8.70
2023-03-12T15:00:34.934Z,8.70
2023-03-12T15:03:05.684Z,8.70
2023-03-12T15:05:34.924Z,8.70
2023-03-12T15:08:04.591Z,8.70
2023-03-12T15:10:33.108Z,8.60
2023-03-12T15:13:03.135Z,8.70
2023-03-12T15:15:40.405Z,8.60
2023-03-12T15:18:20.933Z,8.60
2023-03-12T15:20:49.332Z,8.60
2023-03-12T15:23:19.017Z,8.60
2023-03-12T15:25:46.607Z,8.60
2023-03-12T15:28:18.483Z,8.60
2023-03-12T15:30:45.772Z,8.60
2023-03-12T15:33:16.083Z,8.60
2023-03-12T15:36:00.936Z,8.60
2023-03-12T15:38:29.144Z,8.50
2023-03-12T15:41:01.319Z,8.50
2023-03-12T15:43:28.826Z,8.40
2023-03-12T15:46:05.110Z,8.40
2023-03-12T15:48:40.348Z,8.30
2023-03-12T15:51:26.005Z,8.40
2023-03-12T15:54:19.595Z,8.30
2023-03-12T15:56:46.936Z,8.40
2023-03-12T15:59:16.923Z,8.30
2023-03-12T16:01:46.987Z,8.30
2023-03-12T16:04:14.247Z,8.30
2023-03-12T16:06:44.592Z,8.20
2023-03-12T16:09:20.254Z,8.20
2023-03-12T16:11:48.060Z,8.10
2023-03-12T16:14:17.679Z,8.10
2023-03-12T16:16:45.761Z,8.00
2023-03-12T16:19:18.892Z,8.00
2023-03-12T16:21:46.311Z,7.90
2023-03-12T16:24:16.680Z,7.90
2023-03-12T16:26:57.049Z,7.90
2023-03-12T16:29:35.142Z,7.90
2023-03-12T16:32:09.670Z,7.80
2023-03-12T16:34:37.448Z,7.80
2023-03-12T16:37:04.655Z,7.70
2023-03-12T16:39:33.475Z,7.70
2023-03-12T16:42:02.018Z,7.70
2023-03-12T16:44:32.583Z,7.60
2023-03-12T16:47:01.300Z,7.50
2023-03-12T16:49:28.683Z,7.60
2023-03-12T16:51:55.989Z,7.50
2023-03-12T16:54:23.161Z,7.50
2023-03-12T16:56:51.049Z,7.50
2023-03-12T16:59:25.678Z,7.50
2023-03-12T17:01:53.581Z,7.50
2023-03-12T17:04:20.851Z,7.40
2023-03-12T17:06:48.164Z,7.50
2023-03-12T17:09:15.588Z,7.50
2023-03-12T17:11:43.428Z,7.50
2023-03-12T17:14:22.617Z,7.50
2023-03-12T17:16:50.970Z,7.40
2023-03-12T17:19:18.151Z,7.40
2023-03-12T17:21:46.036Z,7.40
2023-03-12T17:24:14.444Z,7.30
2023-03-12T17:26:43.741Z,7.30
2023-03-12T17:29:10.964Z,7.30
2023-03-12T17:31:38.276Z,7.30
2023-03-12T17:34:05.537Z,7.20
2023-03-12T17:36:37.782Z,7.10
2023-03-12T17:39:05.854Z,7.10
2023-03-12T17:41:33.966Z,7.10
2023-03-12T17:44:02.428Z,7.10
2023-03-12T17:46:31.277Z,7.10
2023-03-12T17:48:58.756Z,7.10
2023-03-12T17:51:26.160Z,7.10
2023-03-12T17:53:53.348Z,7.10
2023-03-12T17:56:20.664Z,7.10
2023-03-12T17:58:48.506Z,7.20
2023-03-12T18:01:17.146Z,7.20
2023-03-12T18:03:44.784Z,7.20
2023-03-12T18:06:12.679Z,7.20
2023-03-12T18:08:40.129Z,7.10
2023-03-12T18:11:07.657Z,7.10
2023-03-12T18:13:35.050Z,7.10
2023-03-12T18:16:02.409Z,7.00
2023-03-12T18:18:29.923Z,6.90
2023-03-12T18:20:57.204Z,7.00
2023-03-12T18:23:26.006Z,7.00
2023-03-12T18:25:53.274Z,7.10
2023-03-12T18:28:21.099Z,7.00
2023-03-12T18:30:48.940Z,7.00
2023-03-12T18:33:17.103Z,6.90
2023-03-12T18:35:45.116Z,6.90
2023-03-12T18:38:12.776Z,6.90
2023-03-12T18:40:40.068Z,6.90
2023-03-12T18:43:08.010Z,6.90
2023-03-12T18:45:35.199Z,6.90
2023-03-12T18:48:02.424Z,6.80
2023-03-12T18:50:29.683Z,6.80
2023-03-12T18:52:59.090Z,6.70
2023-03-12T18:55:26.696Z,6.80
2023-03-12T18:57:54.019Z,6.80
2023-03-12T19:00:21.725Z,6.90
2023-03-12T19:02:49.100Z,7.20
2023-03-12T19:05:17.550Z,7.20
2023-03-12T19:07:44.835Z,7.20
2023-03-12T19:10:13.147Z,7.10
2023-03-12T19:12:51.356Z,7.10
2023-03-12T19:15:19.604Z,7.10
2023-03-12T19:17:47.113Z,7.00
2023-03-12T19:20:14.504Z,7.10
2023-03-12T19:22:42.018Z,7.00
2023-03-12T19:25:09.519Z,7.00
2023-03-12T19:27:37.256Z,6.90
2023-03-12T19:30:05.660Z,6.90
2023-03-12T19:32:42.566Z,6.70
2023-03-12T19:35:12.385Z,6.60
2023-03-12T19:37:39.617Z,6.30
2023-03-12T19:40:08.008Z,6.20
2023-03-12T19:42:35.421Z,6.10
2023-03-12T19:45:02.674Z,6.00
2023-03-12T19:47:36.150Z,5.90
2023-03-12T19:50:03.724Z,6.00
2023-03-12T19:52:30.881Z,6.00
2023-03-12T19:55:04.747Z,6.10
2023-03-12T19:57:36.395Z,6.10
2023-03-12T20:00:09.862Z,6.20
2023-03-12T20:02:38.935Z,6.00
2023-03-12T20:05:07.640Z,5.80
2023-03-12T20:07:35.963Z,5.90
2023-03-12T20:10:06.037Z,5.90
2023-03-12T20:12:33.628Z,6.00
2023-03-12T20:15:00.877Z,6.10
2023-03-12T20:17:28.013Z,6.20
2023-03-12T20:19:56.124Z,6.20
2023-03-12T20:22:26.381Z,6.20
2023-03-12T20:24:54.087Z,6.10
2023-03-12T20:27:22.597Z,6.10
2023-03-12T20:29:50.956Z,6.00
2023-03-12T20:32:21.319Z,6.10
2023-03-12T20:34:48.559Z,6.00
2023-03-12T20:37:15.804Z,6.00
2023-03-12T20:39:43.335Z,5.90
2023-03-12T20:42:10.549Z,5.80
2023-03-12T20:44:37.724Z,5.70
2023-03-12T20:47:06.155Z,5.80
2023-03-12T20:49:35.118Z,5.80
2023-03-12T20:52:03.088Z,5.70
2023-03-12T20:54:30.591Z,5.60
2023-03-12T20:56:59.105Z,5.60
2023-03-12T20:59:26.382Z,5.70
2023-03-12T21:01:53.673Z,5.60
2023-03-12T21:04:21.049Z,5.60
2023-03-12T21:06:51.852Z,5.60
2023-03-12T21:09:21.642Z,5.50
2023-03-12T21:11:50.882Z,5.50
2023-03-12T21:14:19.095Z,5.50
2023-03-12T21:16:46.637Z,5.50
2023-03-12T21:19:13.872Z,5.50
2023-03-12T21:21:41.585Z,5.50
2023-03-12T21:24:08.796Z,5.60
2023-03-12T21:26:36.101Z,5.60
2023-03-12T21:29:04.639Z,5.60
2023-03-12T21:31:31.883Z,5.60
2023-03-12T21:33:59.491Z,5.50
2023-03-12T21:36:27.244Z,5.50
2023-03-12T21:38:54.435Z,5.30
2023-03-12T21:41:21.994Z,5.20
2023-03-12T21:43:49.266Z,5.20
2023-03-12T21:46:24.980Z,5.00
2023-03-12T21:48:52.507Z,4.90
2023-03-12T21:51:19.807Z,4.80
2023-03-12T21:53:47.230Z,4.80
2023-03-12T21:56:14.505Z,4.70
2023-03-12T21:58:44.367Z,4.70
2023-03-12T22:01:13.454Z,4.70
2023-03-12T22:03:42.713Z,4.70
2023-03-12T22:06:11.260Z,4.70
2023-03-12T22:08:38.829Z,4.60
2023-03-12T22:11:07.618Z,4.60
2023-03-12T22:13:34.906Z,4.70
2023-03-12T22:16:06.971Z,4.60
2023-03-12T22:18:38.236Z,4.70
2023-03-12T22:21:07.738Z,4.80
2023-03-12T22:23:36.523Z,4.80
2023-03-12T22:26:06.677Z,4.70
2023-03-12T22:28:35.303Z,4.60
2023-03-12T22:31:07.932Z,4.60
2023-03-12T22:33:36.514Z,4.50
2023-03-12T22:36:09.691Z,4.50
2023-03-12T22:38:38.154Z,4.60
2023-03-12T22:41:17.400Z,4.60
2023-03-12T22:43:45.631Z,4.70
2023-03-12T22:46:14.133Z,4.70
2023-03-12T22:48:41.391Z,4.70
2023-03-12T22:51:08.870Z,4.70
2023-03-12T22:53:37.062Z,4.60
2023-03-12T22:56:07.454Z,4.70
2023-03-12T22:58:35.457Z,4.80
2023-03-12T23:01:05.370Z,4.80
2023-03-12T23:03:34.249Z,4.90
2023-03-12T23:06:04.065Z,5.00
2023-03-12T23:08:31.604Z,5.00
2023-03-12T23:11:01.805Z,4.90
2023-03-12T23:13:31.864Z,4.90
2023-03-12T23:16:07.649Z,4.90
2023-03-12T23:18:35.878Z,4.90
2023-03-12T23:21:09.511Z,4.90
2023-03-12T23:23:39.679Z,4.90
2023-03-12T23:26:08.252Z,4.90
2023-03-12T23:28:35.505Z,4.90
2023-03-12T23:31:05.297Z,4.90
2023-03-12T23:33:33.460Z,5.00
2023-03-12T23:36:06.448Z,4.90
2023-03-12T23:38:37.317Z,4.90
2023-03-12T23:41:13.539Z,4.90
2023-03-12T23:43:41.205Z,4.90
2023-03-12T23:46:09.942Z,4.90
2023-03-12T23:48:39.133Z,4.80
2023-03-12T23:51:15.285Z,4.80
2023-03-12T23:53:44.799Z,4.80
2023-03-12T23:56:15.272Z,4.80
2023-03-12T23:58:44.082Z,4.90
